Stations météo

réclame
Mon MeteoGroup
Rensjoen, Suède (2031): Température de l'air & dewpoint: 13.01.2018 18:00:00 - 19.01.2018 18:00:00 (CET)Rensjoen, Suède (2031): Vitesse du vent & gusts: 13.01.2018 18:00:00 - 19.01.2018 18:00:00 (CET)Rensjoen, Suède (2031): Direction du vent: 13.01.2018 18:00:00 - 19.01.2018 18:00:00 (CET)Rensjoen, Suède (2031): visibility: 13.01.2018 18:00:00 - 19.01.2018 18:00:00 (CET)Rensjoen, Suède (2031): Quantités de précipitations: 13.01.2018 18:00:00 - 19.01.2018 18:00:00 (CET)
Date & Time tt [°C] td [°C] ff [km/h] ff [knt] fx [km/h] fx [knt] dd vv [km] rr [mm]
19.01.2018 18:00:00 -19,7 -21,6 7 4 10 6 SW - 0,0
19.01.2018 17:00:00 -16,8 -18,7 7 4 12 6 S - 0,0
19.01.2018 16:00:00 -17,5 -19,4 9 5 12 6 S - 0,0
19.01.2018 15:00:00 -19,5 -21,6 6 3 9 5 SSE - 0,0
19.01.2018 14:00:00 -20,4 -22,5 5 3 7 4 S - 0,0
19.01.2018 13:00:00 -17,4 -19,4 3 2 4 2 S - 0,0
19.01.2018 12:00:00 -15,7 -17,5 0 0 4 2 N - 0,0
19.01.2018 11:00:00 -16,0 -17,8 3 2 5 3 SSW - 0,0
19.01.2018 10:00:00 -16,0 -17,8 0 0 4 2 N - 0,0
19.01.2018 09:00:00 -16,5 -18,3 3 2 4 2 E - 0,1
19.01.2018 08:00:00 -16,9 -18,7 0 0 3 2 N - 0,0
19.01.2018 07:00:00 -16,9 -18,7 0 0 3 1 N - 0,1
19.01.2018 06:00:00 -18,6 -20,6 0 0 4 2 N - 0,0
19.01.2018 05:00:00 -17,9 -19,8 2 1 4 2 NNE - 0,0
19.01.2018 04:00:00 -17,6 -19,5 0 0 3 1 N - 0,1
19.01.2018 03:00:00 -19,6 -21,6 0 0 5 3 N - 0,1
19.01.2018 02:00:00 -20,8 -22,9 5 3 5 3 NNE - 0,0
19.01.2018 01:00:00 -21,6 -23,8 2 1 5 3 NNW - 0,0
19.01.2018 00:00:00 -21,3 -23,4 4 2 6 3 S - 0,0
18.01.2018 23:00:00 -21,9 -24,1 3 2 4 2 ESE - 0,0
18.01.2018 22:00:00 -21,6 -23,7 2 1 4 2 SE - 0,2
18.01.2018 21:00:00 -26,0 -28,7 0 0 5 3 N - 0,0
18.01.2018 20:00:00 -23,8 -26,1 4 2 6 4 S - 0,3
18.01.2018 19:00:00 -25,1 -27,4 4 2 7 4 SW - 0,1
18.01.2018 18:00:00 -25,3 -28,1 3 1 5 3 S - 0,0
18.01.2018 17:00:00 -23,1 -25,4 3 2 6 3 SW - 0,0
18.01.2018 16:00:00 -20,8 -22,8 3 2 5 3 SSE - 0,0
18.01.2018 15:00:00 -22,3 -24,7 2 1 6 4 S - 0,0
18.01.2018 14:00:00 -18,9 -20,9 5 3 7 4 SSW - 0,0
18.01.2018 13:00:00 -18,2 -20,2 5 3 10 5 SSW - 0,0
18.01.2018 12:00:00 -18,3 -20,2 5 3 8 4 S - 0,1
18.01.2018 11:00:00 -18,7 -20,7 5 3 13 7 SSW - 0,1
18.01.2018 10:00:00 -18,6 -20,6 6 3 16 8 SW - 0,1
18.01.2018 09:00:00 -18,5 -20,5 10 5 18 10 S - 0,0
18.01.2018 08:00:00 -18,7 -20,7 16 9 23 12 SE - 0,0
18.01.2018 07:00:00 -18,3 -20,2 11 6 19 10 SSW - 0,0
18.01.2018 06:00:00 -17,9 -19,8 9 5 14 8 S - 0,3
18.01.2018 05:00:00 -18,2 -20,1 12 6 18 10 S - 0,1
18.01.2018 04:00:00 -17,4 -19,3 8 4 16 9 S - 0,1
18.01.2018 03:00:00 -17,4 -19,3 4 2 7 4 S - 0,1
18.01.2018 02:00:00 -16,9 -18,8 5 3 8 4 SW - 0,1
18.01.2018 01:00:00 -16,7 -18,5 5 3 8 4 SSW - 0,2
18.01.2018 00:00:00 -16,6 -18,4 5 3 10 6 SSW - 0,2
17.01.2018 23:00:00 -17,2 -19,1 9 5 14 7 S - 0,0
17.01.2018 22:00:00 -16,6 -18,4 8 5 16 8 SSW - 0,0
17.01.2018 21:00:00 -16,6 -18,4 10 5 15 8 S - 0,0
17.01.2018 20:00:00 -16,3 -18,1 8 4 16 9 SSE - 0,0
17.01.2018 19:00:00 -16,1 -17,8 9 5 14 8 S - 0,0
17.01.2018 18:00:00 -15,7 -17,4 11 6 15 8 S - 0,0
17.01.2018 17:00:00 -16,0 -17,7 8 4 12 6 SSW - 0,2
17.01.2018 16:00:00 -16,6 -18,1 7 4 19 10 S - 0,1
17.01.2018 15:00:00 -15,6 -17,1 16 8 23 12 SSE - 0,0
17.01.2018 14:00:00 -15,0 -16,5 13 7 29 16 SSE - 0,0
17.01.2018 13:00:00 -13,4 -15,2 23 12 30 16 SSE - 0,0
17.01.2018 12:00:00 -12,8 -14,4 24 13 31 17 SSE - 0,0
17.01.2018 11:00:00 -12,4 -14,0 18 10 40 21 SSE - 0,0
17.01.2018 10:00:00 -12,2 -13,8 24 13 34 19 SSE - 0,0
17.01.2018 09:00:00 -11,7 -13,3 23 12 31 17 SSE - 0,0
17.01.2018 08:00:00 -11,3 -12,6 24 13 39 21 SSE - 0,0
17.01.2018 07:00:00 -11,5 -12,8 26 14 34 18 SSE - 0,0
17.01.2018 06:00:00 -11,6 -13,0 21 11 40 21 SSE - 0,0
17.01.2018 05:00:00 -11,6 -13,3 32 17 41 22 SSE - 0,0
17.01.2018 04:00:00 -11,8 -13,4 31 17 39 21 SSE - 0,0
17.01.2018 03:00:00 -11,6 -13,3 32 18 45 24 SSE - 0,0
17.01.2018 02:00:00 -11,6 -13,3 35 19 44 24 SSE - 0,0
17.01.2018 01:00:00 -11,0 -12,9 36 19 49 27 SSE - 0,0
17.01.2018 00:00:00 -10,7 -12,4 32 17 43 23 SSE - 0,0
16.01.2018 23:00:00 -10,3 -11,9 35 19 48 26 SSE - 0,0
16.01.2018 22:00:00 -10,1 -11,7 32 17 45 24 SSE - 0,0
16.01.2018 21:00:00 -9,6 -11,4 24 13 48 26 SSE - 0,0
16.01.2018 20:00:00 -9,0 -11,2 32 17 50 27 SSE - 0,0
16.01.2018 19:00:00 -8,8 -11,0 42 23 56 31 S - 0,0
16.01.2018 18:00:00 -8,6 -10,8 35 19 49 27 S - 0,0
16.01.2018 17:00:00 -8,4 -10,6 38 20 54 29 SSE - 0,0
16.01.2018 16:00:00 -8,2 -10,4 37 20 56 30 S - 0,0
16.01.2018 15:00:00 -8,0 -10,1 37 20 56 30 S - 0,0
16.01.2018 14:00:00 -8,1 -9,7 30 16 60 33 SSE - 0,0
16.01.2018 13:00:00 -8,2 -10,1 39 21 55 30 S - 0,0
16.01.2018 12:00:00 -8,3 -10,2 43 23 59 32 S - 0,0
16.01.2018 11:00:00 -8,1 -10,2 41 22 59 32 SSE - 0,0
16.01.2018 10:00:00 -8,0 -9,9 23 12 40 21 ESE - 0,0
16.01.2018 09:00:00 -7,8 -9,6 27 15 45 25 SE - 0,0
16.01.2018 08:00:00 -7,7 -9,1 31 17 54 29 SSE - 0,0
16.01.2018 07:00:00 -7,5 -8,9 41 22 55 30 S - 0,0
16.01.2018 06:00:00 -7,1 -8,6 37 20 67 36 SSE - 0,0
16.01.2018 05:00:00 -6,4 -7,8 51 27 71 39 SSE - 0,0
16.01.2018 04:00:00 -6,0 -7,2 49 27 67 36 S - 0,0
16.01.2018 03:00:00 -5,9 -7,3 46 25 69 37 S - 0,1
16.01.2018 02:00:00 -5,7 -6,9 44 24 67 36 S - 0,0
16.01.2018 01:00:00 -5,6 -6,7 45 25 64 35 S - 0,0
16.01.2018 00:00:00 -5,5 -6,5 51 28 70 38 S - 0,0
15.01.2018 23:00:00 -5,4 -6,4 47 25 64 34 SSE - 0,1
15.01.2018 22:00:00 -5,4 -6,4 47 26 62 33 S - 0,0
15.01.2018 21:00:00 -5,3 -6,1 42 23 61 33 S - 0,0
15.01.2018 20:00:00 -5,4 -6,4 37 20 58 31 S - 0,0
15.01.2018 19:00:00 -5,4 -6,6 37 20 59 32 S - 0,0
15.01.2018 18:00:00 -5,5 -6,9 41 22 60 33 SSE 0,8 0,0
15.01.2018 17:00:00 -5,5 -7,2 34 19 54 29 S 1,8 0,0
15.01.2018 16:00:00 -6,0 -7,7 20 11 60 32 SSE 4,8 0,0
15.01.2018 15:00:00 -6,7 -8,8 44 24 81 44 S 1,5 0,0
15.01.2018 14:00:00 -7,6 -9,8 51 27 96 52 S 1,0 0,0
15.01.2018 13:00:00 -8,0 -10,1 66 36 96 52 S - 0,0
15.01.2018 12:00:00 -7,9 -10,1 37 20 64 35 S - 0,0
15.01.2018 11:00:00 -8,0 -10,2 42 23 59 32 S - 0,0
15.01.2018 10:00:00 -8,2 -11,0 29 15 68 37 S - 0,0
15.01.2018 09:00:00 -8,3 -10,4 53 29 74 40 S - 0,0
15.01.2018 08:00:00 -8,5 -10,1 38 21 54 29 S - 0,0
15.01.2018 07:00:00 -8,7 -10,6 45 24 69 37 S - 0,0
15.01.2018 06:00:00 -9,1 -10,6 56 30 75 41 S - 0,0
15.01.2018 05:00:00 -9,3 -11,2 40 22 82 45 S 1,1 0,0
15.01.2018 04:00:00 -9,7 -11,6 63 34 87 47 S 0,5 0,0
15.01.2018 03:00:00 -10,0 -12,2 62 34 95 51 S 0,7 0,0
15.01.2018 02:00:00 -10,6 -12,9 66 35 82 44 S 0,6 0,0
15.01.2018 01:00:00 -11,3 -13,8 50 27 68 37 S 1,4 0,0
15.01.2018 00:00:00 -11,7 -14,6 35 19 52 28 S - 0,0
14.01.2018 23:00:00 -12,2 -15,4 16 8 40 22 SSE 50 0,0
14.01.2018 22:00:00 -12,6 -15,5 26 14 42 23 SSE 16 0,0
14.01.2018 21:00:00 -13,5 -17,0 29 16 51 28 SE 50 0,0
14.01.2018 20:00:00 -14,4 -17,7 31 17 58 31 S 25 0,0
14.01.2018 19:00:00 -14,4 -18,0 41 22 62 34 S - 0,0
14.01.2018 18:00:00 -16,5 -20,0 22 12 38 20 S 50 0,0
14.01.2018 17:00:00 -17,2 -20,6 29 16 41 22 SSE 27 0,0
14.01.2018 16:00:00 -17,6 -20,4 25 13 39 21 SE 50 0,0
14.01.2018 15:00:00 -16,9 -19,5 26 14 39 21 SE 36 0,0
14.01.2018 14:00:00 -15,3 -18,1 28 15 45 24 SE 43 0,0
14.01.2018 13:00:00 -14,6 -17,0 29 16 39 21 SSE 13 0,0
14.01.2018 12:00:00 -14,3 -16,0 12 7 24 13 SSE 28 0,0
14.01.2018 11:00:00 -15,8 -17,6 6 4 12 7 W 50 0,0
14.01.2018 10:00:00 -17,9 -19,7 0 0 3 1 N 50 0,0
14.01.2018 09:00:00 -20,0 -22,1 0 0 2 1 N 19 0,0
14.01.2018 08:00:00 -21,5 -23,5 0 0 2 1 N 50 0,0
14.01.2018 07:00:00 -21,6 -23,7 0 0 2 1 N 50 0,0
14.01.2018 06:00:00 -18,8 -20,7 0 0 3 2 N 6 0,0
14.01.2018 05:00:00 -18,9 -20,7 0 0 2 1 N 1,2 0,0
14.01.2018 04:00:00 -18,3 -20,2 0 0 3 2 N - 0,0
14.01.2018 03:00:00 -18,1 -20,0 2 1 3 2 S - 0,0
14.01.2018 02:00:00 -19,1 -21,0 0 0 3 2 N 15 0,1
14.01.2018 01:00:00 -21,1 -23,4 0 0 3 1 N - 0,0
14.01.2018 00:00:00 -20,9 -23,2 0 0 4 2 N - 0,0
13.01.2018 23:00:00 -20,5 -22,5 0 0 4 2 N - 0,0
13.01.2018 22:00:00 -21,1 -23,5 2 1 3 2 WSW 50 0,0
13.01.2018 21:00:00 -19,8 -22,2 0 0 3 1 N 7 0,0
13.01.2018 20:00:00 -20,2 -22,5 3 1 5 3 NE 17 0,0
13.01.2018 19:00:00 -18,8 -20,8 0 0 4 2 N 50 0,0
13.01.2018 18:00:00 -18,8 -21,1 3 1 4 2 SSW 50 0,0

tt = Température de l'air
td = dewpoint
ff = Vitesse du vent
fx = gusts
dd = Direction du vent
vv = visibility
rr = Quantités de précipitations

stations d'obs. à proximité